Time;durP1;ratioP1;P1;durP2;ratioP2;P2;SDS_P1;SDS_P2;PMS_P1;PMS_P2;Temp;Humidity;BMP_temperature;BMP_pressure;BME280_temperature;BME280_humidity;BME280_pressure;Samples;Min_cycle;Max_cycle;Signal;HPM_P1;HPM_P2
2022/08/13 00:01:38;;;;;;;11.60;9.10;;;;;;;21.55;59.77;99150.35;237490;1196;139938;-57
2022/08/13 00:07:02;;;;;;;12.20;9.70;;;;;;;21.55;59.97;99142.30;237066;1196;139236;-57
2022/08/13 00:17:52;;;;;;;10.70;9.00;;;;;;;21.44;60.04;99135.67;237225;1196;138998;-57
2022/08/13 00:23:10;;;;;;;11.40;8.80;;;;;;;21.43;60.07;99136.05;237323;1196;140079;-61
2022/08/13 00:28:28;;;;;;;13.30;10.10;;;;;;;21.45;60.26;99134.83;236705;1196;139379;-60
2022/08/13 00:33:31;;;;;;;12.20;10.00;;;;;;;21.51;60.57;99130.77;237077;1196;139303;-60
2022/08/13 00:38:49;;;;;;;11.70;9.80;;;;;;;21.48;60.27;99122.96;236991;1196;139686;-60
2022/08/13 00:43:52;;;;;;;12.50;9.80;;;;;;;21.42;60.42;99113.50;237118;1196;140589;-58
2022/08/13 00:48:56;;;;;;;10.70;9.40;;;;;;;21.36;60.42;99111.33;237202;1196;140096;-57
2022/08/13 00:54:02;;;;;;;10.20;9.10;;;;;;;21.36;60.51;99109.58;237114;1196;139746;-57
2022/08/13 00:59:13;;;;;;;13.00;10.00;;;;;;;21.33;60.59;99110.28;236393;1196;139820;-59
2022/08/13 01:04:21;;;;;;;10.80;9.70;;;;;;;21.27;60.65;99100.77;237060;1196;140004;-58
2022/08/13 01:09:30;;;;;;;12.00;9.90;;;;;;;21.25;60.84;99092.16;237131;1196;139788;-59
2022/08/13 01:14:59;;;;;;;11.80;10.50;;;;;;;21.22;60.98;99083.19;237125;1196;140488;-59
2022/08/13 01:20:04;;;;;;;12.90;9.10;;;;;;;21.28;61.22;99076.70;236827;1196;140597;-57
2022/08/13 01:25:08;;;;;;;11.90;8.70;;;;;;;21.36;61.21;99077.31;237108;1196;140655;-58
2022/08/13 01:30:14;;;;;;;12.20;9.60;;;;;;;21.38;61.22;99067.65;237296;1196;141208;-59
2022/08/13 01:35:20;;;;;;;10.40;9.20;;;;;;;21.44;61.50;99063.81;237428;1196;139572;-58
2022/08/13 01:40:24;;;;;;;10.40;9.30;;;;;;;21.48;61.38;99059.57;237164;1196;138830;-59
2022/08/13 01:45:30;;;;;;;10.50;9.30;;;;;;;21.43;61.43;99060.45;236963;1197;140255;-60
2022/08/13 01:50:36;;;;;;;12.10;9.00;;;;;;;21.38;61.39;99067.84;237199;1195;139937;-60
2022/08/13 01:55:44;;;;;;;11.50;9.00;;;;;;;21.35;61.51;99065.48;237286;1195;140459;-57
2022/08/13 02:01:07;;;;;;;11.70;9.30;;;;;;;21.36;61.57;99059.61;237253;1196;139708;-58
2022/08/13 02:06:11;;;;;;;11.30;10.00;;;;;;;21.34;61.62;99057.78;237139;1196;139993;-60
2022/08/13 02:11:29;;;;;;;12.60;10.00;;;;;;;21.34;61.75;99056.88;237254;1196;139931;-60
2022/08/13 02:16:36;;;;;;;13.10;11.30;;;;;;;21.33;61.88;99055.39;237189;1196;139431;-59
2022/08/13 02:21:42;;;;;;;17.50;10.80;;;;;;;21.30;61.88;99052.09;236472;1196;139121;-58
2022/08/13 02:26:47;;;;;;;11.40;10.00;;;;;;;21.29;61.93;99054.69;237391;1195;141895;-60
2022/08/13 02:31:56;;;;;;;13.50;11.30;;;;;;;21.31;62.14;99054.77;237182;1196;140360;-60
2022/08/13 02:37:15;;;;;;;15.70;11.10;;;;;;;21.32;62.34;99050.39;236830;1196;140846;-57
2022/08/13 02:42:38;;;;;;;13.60;11.70;;;;;;;21.34;62.21;99055.14;237092;1196;141083;-60
2022/08/13 02:47:42;;;;;;;13.90;12.40;;;;;;;21.32;62.27;99055.34;235940;1196;139408;-59
2022/08/13 02:52:51;;;;;;;15.30;11.10;;;;;;;21.30;62.42;99053.23;237288;1195;139575;-61
2022/08/13 02:58:02;;;;;;;13.20;11.50;;;;;;;21.32;62.56;99051.16;237289;1196;254124;-58
2022/08/13 03:03:05;;;;;;;13.80;11.80;;;;;;;21.36;62.65;99044.47;237172;1196;139762;-60
2022/08/13 03:08:13;;;;;;;14.00;12.50;;;;;;;21.40;62.70;99036.46;237163;1196;141383;-60
2022/08/13 03:13:38;;;;;;;15.90;12.80;;;;;;;21.41;62.77;99031.21;237629;1195;139475;-61
2022/08/13 03:18:47;;;;;;;13.90;12.40;;;;;;;21.40;62.73;99025.73;236124;1196;139505;-57
2022/08/13 03:23:56;;;;;;;13.90;11.10;;;;;;;21.38;62.78;99019.45;237122;1196;140861;-58
2022/08/13 03:29:07;;;;;;;15.40;12.20;;;;;;;21.40;62.91;99016.55;237146;1196;140252;-58
2022/08/13 03:34:10;;;;;;;13.60;12.20;;;;;;;21.43;62.96;99013.52;235785;1196;141213;-57
2022/08/13 03:39:14;;;;;;;15.00;12.80;;;;;;;21.47;63.12;99010.38;236782;1197;139665;-57
2022/08/13 03:44:18;;;;;;;20.30;15.40;;;;;;;21.49;63.08;99014.10;235232;1196;139303;-58
2022/08/13 03:49:22;;;;;;;16.00;13.70;;;;;;;21.48;63.05;99016.44;237231;1196;141157;-59
2022/08/13 03:54:30;;;;;;;14.70;12.80;;;;;;;21.42;63.16;99019.92;236081;1196;140037;-58
2022/08/13 03:59:33;;;;;;;14.00;12.50;;;;;;;21.41;63.24;99026.75;235198;1196;140789;-60
2022/08/13 04:04:51;;;;;;;15.40;13.50;;;;;;;21.44;63.25;99027.84;237064;1196;140389;-61
2022/08/13 04:09:55;;;;;;;17.40;14.00;;;;;;;21.44;63.54;99024.95;237082;1196;139687;-58
2022/08/13 04:14:59;;;;;;;18.10;15.20;;;;;;;21.48;63.69;99027.11;237116;1196;139676;-58
2022/08/13 04:20:06;;;;;;;36.60;28.70;;;;;;;21.49;63.68;99030.73;237293;1196;139593;-58
2022/08/13 04:25:15;;;;;;;24.10;19.20;;;;;;;21.59;63.89;99027.06;237315;1196;140508;-58
2022/08/13 04:30:29;;;;;;;20.50;16.40;;;;;;;21.67;63.71;99025.94;237233;1196;140051;-58
2022/08/13 04:35:32;;;;;;;20.80;16.20;;;;;;;21.71;63.73;99019.20;235937;1196;139713;-56
2022/08/13 04:40:45;;;;;;;26.30;22.20;;;;;;;21.76;63.72;99017.34;236598;1195;140259;-56
2022/08/13 04:45:59;;;;;;;22.40;17.80;;;;;;;21.85;63.76;99023.96;236136;1196;140257;-58
2022/08/13 04:51:02;;;;;;;21.60;15.20;;;;;;;21.85;63.56;99025.08;235308;1196;139572;-58
2022/08/13 04:56:05;;;;;;;81.60;64.30;;;;;;;21.83;63.52;99029.20;237336;1196;140178;-59
2022/08/13 05:01:21;;;;;;;29.50;22.30;;;;;;;21.93;63.71;99029.09;237497;1195;139893;-61
2022/08/13 05:06:45;;;;;;;27.00;19.90;;;;;;;22.04;63.73;99025.02;237191;1196;140207;-61
2022/08/13 05:11:55;;;;;;;23.30;17.20;;;;;;;22.11;63.57;99023.98;237229;1196;140712;-61
2022/08/13 05:17:08;;;;;;;28.60;18.40;;;;;;;22.12;63.41;99026.76;237391;1196;139434;-59
2022/08/13 05:22:15;;;;;;;32.80;22.80;;;;;;;22.07;63.24;99020.72;237366;1195;139465;-59
2022/08/13 05:27:32;;;;;;;24.50;18.40;;;;;;;22.06;63.26;99024.31;235578;1196;141117;-57
2022/08/13 05:32:43;;;;;;;22.70;16.70;;;;;;;22.13;63.47;99027.45;236995;1196;143103;-59
2022/08/13 05:37:53;;;;;;;22.10;15.50;;;;;;;22.20;63.59;99023.77;237352;1196;140325;-57
2022/08/13 05:43:19;;;;;;;21.40;15.80;;;;;;;22.25;63.36;99023.02;236305;1196;140095;-59
2022/08/13 05:48:22;;;;;;;21.00;14.50;;;;;;;22.31;63.37;99018.08;237053;1196;139382;-59
2022/08/13 05:53:32;;;;;;;97.60;76.70;;;;;;;22.39;63.26;99019.41;235415;1196;140382;-57
2022/08/13 05:58:55;;;;;;;42.70;25.80;;;;;;;22.40;63.06;99018.84;236993;1196;140919;-60
2022/08/13 06:04:00;;;;;;;166.00;120.30;;;;;;;22.30;62.90;99013.27;237012;1196;140586;-59
2022/08/13 06:09:24;;;;;;;38.90;27.80;;;;;;;22.19;63.06;99014.29;235719;1196;140155;-59
2022/08/13 06:14:35;;;;;;;29.00;20.00;;;;;;;22.13;63.22;99016.31;237299;1196;140666;-61
2022/08/13 06:19:43;;;;;;;24.80;18.30;;;;;;;22.18;63.59;99012.08;237564;1195;139529;-61
2022/08/13 06:24:52;;;;;;;31.00;20.70;;;;;;;22.29;63.67;99008.79;237208;1196;140302;-61
2022/08/13 06:29:58;;;;;;;23.70;16.60;;;;;;;22.36;63.50;99004.67;237162;1196;139968;-62
2022/08/13 06:35:05;;;;;;;20.90;15.50;;;;;;;22.36;63.43;99001.92;237153;1196;139556;-62
2022/08/13 06:40:15;;;;;;;20.70;14.60;;;;;;;22.32;63.38;98997.66;237374;1195;139810;-59
2022/08/13 06:45:37;;;;;;;18.90;13.90;;;;;;;22.34;63.50;98995.25;237433;1195;142059;-59
2022/08/13 06:50:44;;;;;;;29.20;13.90;;;;;;;22.38;63.65;98991.52;236288;1196;140112;-57
2022/08/13 06:55:51;;;;;;;47.90;36.20;;;;;;;22.42;63.68;98989.73;236443;1196;139516;-56
2022/08/13 07:01:23;;;;;;;20.60;15.80;;;;;;;22.38;63.60;98990.98;235940;1195;139953;-54
2022/08/13 07:06:28;;;;;;;16.80;12.50;;;;;;;22.33;63.63;98991.05;236810;1196;140285;-55
2022/08/13 07:11:32;;;;;;;18.90;13.40;;;;;;;22.33;63.63;98996.27;237163;1196;139979;-59
2022/08/13 07:16:44;;;;;;;19.40;14.30;;;;;;;22.33;63.74;99000.61;237332;1196;140046;-60
2022/08/13 07:21:48;;;;;;;42.20;32.10;;;;;;;22.33;63.78;98998.48;237404;1195;139398;-59
2022/08/13 07:26:59;;;;;;;21.10;15.40;;;;;;;22.32;63.75;99002.55;236839;1196;139899;-58
2022/08/13 07:32:04;;;;;;;19.10;13.30;;;;;;;22.29;63.84;99001.95;237370;1196;141127;-60
2022/08/13 07:37:09;;;;;;;16.10;12.30;;;;;;;22.27;63.94;98999.70;235848;1196;140889;-59
2022/08/13 07:42:16;;;;;;;15.50;11.40;;;;;;;22.28;63.96;99001.95;235768;1195;140009;-58
2022/08/13 07:47:35;;;;;;;15.70;12.80;;;;;;;22.33;64.06;98999.05;237401;1196;140287;-58
2022/08/13 07:52:58;;;;;;;35.50;29.70;;;;;;;22.37;64.38;99005.19;235898;1196;139304;-59
2022/08/13 07:58:03;;;;;;;18.60;13.90;;;;;;;22.39;64.42;99007.36;237161;1196;140258;-59
2022/08/13 08:03:06;;;;;;;14.70;11.50;;;;;;;22.35;64.42;99004.67;235899;1196;139679;-55
2022/08/13 08:08:13;;;;;;;13.40;10.00;;;;;;;22.32;64.35;99003.88;235810;1196;139764;-57
2022/08/13 08:13:32;;;;;;;11.40;9.30;;;;;;;22.30;64.41;99000.65;237388;1196;140681;-58
2022/08/13 08:18:37;;;;;;;92.70;72.90;;;;;;;22.30;64.67;98992.05;237269;1196;142467;-57
2022/08/13 08:24:04;;;;;;;23.40;18.10;;;;;;;22.46;64.95;98984.77;237399;1195;140637;-55
2022/08/13 08:29:31;;;;;;;15.20;12.50;;;;;;;22.57;64.98;98985.05;237042;1196;139582;-57
2022/08/13 08:34:41;;;;;;;19.60;16.20;;;;;;;22.64;64.84;98983.59;237140;1196;140174;-57
2022/08/13 08:45:31;;;;;;;13.80;11.20;;;;;;;22.77;64.72;98970.95;237407;1196;139925;-55
2022/08/13 08:50:54;;;;;;;13.60;11.60;;;;;;;22.86;64.81;98967.45;236134;1196;139584;-56
2022/08/13 08:55:59;;;;;;;12.50;11.00;;;;;;;22.95;64.77;98956.23;237316;1196;140179;-55
2022/08/13 09:01:13;;;;;;;11.70;9.80;;;;;;;22.97;64.57;98949.12;237459;1195;140366;-56
2022/08/13 09:06:18;;;;;;;11.30;9.60;;;;;;;23.03;64.57;98950.95;236913;1195;139766;-54
2022/08/13 09:11:36;;;;;;;17.70;14.80;;;;;;;23.08;64.49;98949.85;235860;1196;140340;-55
2022/08/13 09:16:57;;;;;;;18.00;14.20;;;;;;;23.08;64.38;98944.93;235774;1196;238308;-56
2022/08/13 09:22:03;;;;;;;12.70;10.60;;;;;;;23.05;64.32;98942.94;236673;1196;139896;-56
2022/08/13 09:27:07;;;;;;;15.30;12.00;;;;;;;23.03;64.36;98943.93;235976;1195;139750;-56
2022/08/13 09:32:10;;;;;;;10.30;8.50;;;;;;;23.07;64.32;98947.79;236270;1196;140607;-55
2022/08/13 09:37:34;;;;;;;9.70;8.60;;;;;;;23.15;64.37;98943.41;235396;1196;139997;-56
2022/08/13 09:43:02;;;;;;;15.40;12.70;;;;;;;23.20;64.33;98944.59;237614;1195;139263;-57
2022/08/13 09:48:13;;;;;;;28.60;14.30;;;;;;;23.25;64.25;98939.14;235603;1196;139272;-57
2022/08/13 09:53:36;;;;;;;19.10;11.60;;;;;;;23.28;64.19;98931.95;235584;1196;139622;-56
2022/08/13 09:58:39;;;;;;;13.70;9.20;;;;;;;23.32;64.40;98927.61;237260;1195;139914;-56
2022/08/13 10:03:48;;;;;;;;;;;;;;;23.38;64.13;98925.80;237220;1196;140332;-55
2022/08/13 10:09:00;;;;;;;11.80;8.80;;;;;;;23.39;63.86;98918.30;237193;1196;126423;-57
2022/08/13 10:14:03;;;;;;;10.40;9.20;;;;;;;23.41;63.79;98913.20;237333;1196;139405;-57
2022/08/13 10:19:06;;;;;;;36.10;26.20;;;;;;;23.46;63.69;98911.49;237167;1195;139618;-57
2022/08/13 10:24:09;;;;;;;14.30;12.20;;;;;;;23.53;63.59;98908.73;237251;1195;139855;-57
2022/08/13 10:29:13;;;;;;;10.50;9.00;;;;;;;23.64;63.53;98904.11;236953;1196;140395;-58
2022/08/13 10:34:36;;;;;;;10.90;8.70;;;;;;;23.77;63.18;98903.81;237296;1195;140615;-56
2022/08/13 10:39:59;;;;;;;11.50;9.20;;;;;;;23.81;63.10;98895.59;237336;1196;139634;-58
2022/08/13 10:45:02;;;;;;;12.30;9.60;;;;;;;23.85;63.05;98887.16;237105;1195;139650;-57
2022/08/13 10:50:08;;;;;;;10.10;8.80;;;;;;;23.90;63.02;98880.22;237228;1195;139730;-58
2022/08/13 10:55:13;;;;;;;11.20;7.90;;;;;;;23.95;62.84;98873.86;237498;1195;139778;-57
2022/08/13 11:00:22;;;;;;;9.00;8.10;;;;;;;23.94;62.52;98873.05;237387;1195;140676;-58
2022/08/13 11:05:26;;;;;;;9.70;8.70;;;;;;;23.92;62.58;98872.43;237182;1195;139490;-58
2022/08/13 11:10:30;;;;;;;11.20;7.80;;;;;;;23.89;62.50;98867.08;237279;1195;139940;-58
2022/08/13 11:15:35;;;;;;;20.40;18.10;;;;;;;23.88;62.51;98872.30;237180;1195;139530;-57
2022/08/13 11:21:07;;;;;;;10.80;7.60;;;;;;;24.00;62.68;98863.48;237383;1196;139911;-57
2022/08/13 11:26:30;;;;;;;9.80;6.90;;;;;;;24.18;62.62;98863.38;237428;1196;139611;-57
2022/08/13 11:31:43;;;;;;;8.20;7.10;;;;;;;24.21;62.38;98864.53;237573;1196;139998;-56
2022/08/13 11:37:03;;;;;;;8.20;7.40;;;;;;;24.21;62.29;98865.80;237364;1196;139398;-58
2022/08/13 11:42:10;;;;;;;8.50;7.20;;;;;;;24.18;62.11;98868.48;237400;1196;139845;-57
2022/08/13 11:47:13;;;;;;;10.30;7.50;;;;;;;24.20;62.24;98870.42;237384;1195;140256;-57
2022/08/13 11:52:32;;;;;;;8.10;7.20;;;;;;;24.24;62.21;98870.83;237019;1196;140116;-57
2022/08/13 11:57:35;;;;;;;9.70;8.00;;;;;;;24.33;62.21;98871.58;237447;1196;140213;-57
2022/08/13 12:02:49;;;;;;;9.20;8.20;;;;;;;24.40;62.03;98866.59;237429;1195;140166;-58
2022/08/13 12:07:57;;;;;;;11.00;8.50;;;;;;;24.48;62.12;98863.00;237695;1194;139804;-57
2022/08/13 12:13:03;;;;;;;12.00;8.50;;;;;;;24.61;62.17;98853.45;237259;1195;140228;-57
2022/08/13 12:18:12;;;;;;;9.40;8.40;;;;;;;24.73;62.09;98851.60;237133;1196;142106;-58
2022/08/13 12:23:17;;;;;;;11.90;9.20;;;;;;;25.06;62.21;98840.09;236391;1196;140054;-57
2022/08/13 12:28:35;;;;;;;13.70;8.80;;;;;;;25.42;62.13;98832.71;237385;1196;139953;-57
2022/08/13 12:33:38;;;;;;;13.40;9.20;;;;;;;25.66;61.72;98830.23;237452;1195;139423;-58
2022/08/13 12:38:45;;;;;;;10.50;8.50;;;;;;;25.84;61.17;98828.02;237444;1196;139320;-57
2022/08/13 12:44:02;;;;;;;12.00;9.00;;;;;;;25.84;60.61;98825.89;237455;1195;140084;-58
2022/08/13 12:49:25;;;;;;;9.80;8.80;;;;;;;25.71;60.10;98822.86;237694;1195;139226;-57
2022/08/13 12:54:28;;;;;;;11.50;8.90;;;;;;;25.55;59.87;98825.29;237466;1195;140168;-57
2022/08/13 12:59:51;;;;;;;13.70;9.70;;;;;;;25.37;59.91;98828.85;237455;1195;139856;-56
2022/08/13 13:05:06;;;;;;;14.90;9.70;;;;;;;25.16;60.05;98843.76;237467;1196;139702;-58
2022/08/13 13:10:19;;;;;;;16.20;11.60;;;;;;;24.87;60.41;98841.84;237473;1195;140113;-56
2022/08/13 13:15:22;;;;;;;13.30;11.20;;;;;;;24.61;60.87;98833.83;236954;1195;162346;-58
2022/08/13 13:20:47;;;;;;;13.90;11.40;;;;;;;24.39;61.45;98828.92;237458;1196;139781;-58
2022/08/13 13:25:51;;;;;;;13.10;10.60;;;;;;;24.20;61.75;98832.48;237552;1195;139261;-57
2022/08/13 13:30:55;;;;;;;11.80;9.00;;;;;;;24.03;62.15;98815.55;237432;1196;140258;-58
2022/08/13 13:36:18;;;;;;;10.80;9.60;;;;;;;23.95;62.64;98816.42;237370;1195;140007;-57
2022/08/13 13:41:22;;;;;;;13.50;9.70;;;;;;;23.93;62.88;98818.11;237618;1195;141159;-57
2022/08/13 13:46:45;;;;;;;14.30;10.20;;;;;;;23.92;63.36;98814.77;237377;1195;140265;-55
2022/08/13 13:51:51;;;;;;;11.60;9.60;;;;;;;23.88;63.48;98812.90;237456;1196;139468;-58
2022/08/13 13:56:55;;;;;;;12.90;9.00;;;;;;;23.90;63.80;98815.52;237534;1195;140117;-58
2022/08/13 14:01:59;;;;;;;12.30;8.80;;;;;;;23.93;63.74;98819.71;237721;1195;140301;-58
2022/08/13 14:07:06;;;;;;;12.30;9.30;;;;;;;23.86;63.78;98815.84;237404;1195;139720;-56
2022/08/13 14:12:30;;;;;;;10.80;9.60;;;;;;;23.90;64.17;98813.05;237328;1195;139486;-58
2022/08/13 14:17:56;;;;;;;11.80;10.50;;;;;;;23.92;64.35;98808.98;237598;1195;139659;-57
2022/08/13 14:23:23;;;;;;;11.70;9.70;;;;;;;23.93;64.48;98814.77;237513;1195;140221;-58
2022/08/13 14:28:26;;;;;;;11.90;9.20;;;;;;;23.99;64.63;98814.58;237441;1196;142266;-58
2022/08/13 14:33:31;;;;;;;12.30;10.40;;;;;;;24.10;64.83;98805.98;237451;1195;141497;-58
2022/08/13 14:38:54;;;;;;;14.20;10.80;;;;;;;24.22;65.12;98799.96;237436;1195;140438;-57
2022/08/13 14:43:57;;;;;;;13.30;11.50;;;;;;;24.33;65.30;98793.88;237553;1195;139732;-57
2022/08/13 14:49:04;;;;;;;12.20;10.60;;;;;;;24.44;65.27;98790.78;237351;1195;139710;-58
2022/08/13 14:54:07;;;;;;;11.50;10.20;;;;;;;24.52;65.31;98793.94;237496;1195;140188;-58
2022/08/13 14:59:11;;;;;;;12.50;10.50;;;;;;;24.58;65.32;98790.19;237519;1195;140163;-55
2022/08/13 15:04:24;;;;;;;136.40;122.00;;;;;;;24.62;65.22;98786.98;237481;1195;139613;-57
2022/08/13 15:09:33;;;;;;;25.90;21.10;;;;;;;24.67;65.40;98774.71;236612;1195;139697;-55
2022/08/13 15:14:57;;;;;;;15.20;12.90;;;;;;;24.73;65.24;98767.46;237424;1195;139745;-57
2022/08/13 15:20:02;;;;;;;13.00;11.70;;;;;;;24.71;65.25;98765.80;237477;1195;140819;-57
2022/08/13 15:25:08;;;;;;;14.50;12.80;;;;;;;24.80;65.39;98760.46;237140;1195;140754;-56
2022/08/13 15:30:14;;;;;;;20.40;17.90;;;;;;;24.87;65.12;98753.84;237205;1196;141753;-57
2022/08/13 15:35:19;;;;;;;16.00;14.00;;;;;;;24.86;64.63;98750.55;237224;1195;140187;-57
2022/08/13 15:40:26;;;;;;;14.80;13.20;;;;;;;24.85;64.74;98744.68;237207;1196;140096;-57
2022/08/13 15:45:37;;;;;;;124.90;104.40;;;;;;;24.81;64.37;98749.41;237214;1196;139577;-57
2022/08/13 15:50:44;;;;;;;16.80;15.00;;;;;;;24.74;64.30;98753.86;237354;1195;142230;-57
2022/08/13 15:55:49;;;;;;;18.00;7.80;;;;;;;24.49;63.80;98777.10;237199;1196;140709;-57
2022/08/13 16:01:01;;;;;;;15.80;8.20;;;;;;;24.07;63.54;98784.65;236624;1196;140200;-57
2022/08/13 16:06:29;;;;;;;11.30;7.50;;;;;;;23.65;63.66;98787.87;237112;1196;141100;-58
2022/08/13 16:11:35;;;;;;;13.50;6.20;;;;;;;23.33;63.88;98788.24;237435;1195;140218;-57
2022/08/13 16:16:50;;;;;;;10.80;7.70;;;;;;;23.08;64.06;98791.60;237146;1196;140180;-55
2022/08/13 16:21:53;;;;;;;8.10;6.80;;;;;;;22.93;64.40;98786.48;237414;1196;139951;-56
2022/08/13 16:27:03;;;;;;;11.00;7.30;;;;;;;22.84;64.65;98781.95;237383;1196;141967;-56
2022/08/13 16:32:09;;;;;;;8.70;7.20;;;;;;;22.76;65.08;98778.54;237516;1195;139444;-58
2022/08/13 16:37:31;;;;;;;10.50;6.70;;;;;;;22.69;65.25;98780.13;237556;1195;139365;-56
2022/08/13 16:42:58;;;;;;;15.30;7.70;;;;;;;22.65;65.39;98782.13;237357;1195;141543;-55
2022/08/13 16:48:10;;;;;;;70.70;63.20;;;;;;;22.66;65.75;98778.06;237266;1195;141476;-56
2022/08/13 16:53:14;;;;;;;24.30;19.80;;;;;;;22.72;66.05;98779.92;237338;1195;140201;-57
2022/08/13 16:58:40;;;;;;;11.20;8.90;;;;;;;22.80;66.28;98776.92;237446;1195;141953;-55
2022/08/13 17:09:29;;;;;;;9.20;7.70;;;;;;;22.93;66.39;98780.52;237295;1195;142650;-57
2022/08/13 17:14:39;;;;;;;10.40;9.30;;;;;;;23.01;66.46;98777.61;237541;1195;139845;-56
2022/08/13 17:19:44;;;;;;;10.00;8.60;;;;;;;23.07;66.55;98775.19;237331;1195;139446;-54
2022/08/13 17:25:00;;;;;;;9.80;8.70;;;;;;;23.10;66.49;98773.14;237422;1195;139946;-55
2022/08/13 17:30:05;;;;;;;10.00;7.60;;;;;;;23.11;66.47;98765.23;237427;1195;139487;-55
2022/08/13 17:35:12;;;;;;;10.10;7.80;;;;;;;23.15;66.45;98760.54;237286;1195;140143;-55
2022/08/13 17:40:19;;;;;;;11.00;7.90;;;;;;;23.20;66.35;98750.59;237253;1195;139846;-55
2022/08/13 17:45:22;;;;;;;120.10;97.00;;;;;;;23.24;66.32;98753.83;237788;1195;140254;-56
2022/08/13 17:50:39;;;;;;;54.50;44.20;;;;;;;23.27;66.18;98757.11;237450;1195;139966;-57
2022/08/13 17:55:51;;;;;;;20.60;17.30;;;;;;;23.26;65.97;98762.31;237331;1196;140368;-56
2022/08/13 18:00:56;;;;;;;14.40;12.40;;;;;;;23.25;65.88;98764.41;237358;1195;142288;-57
2022/08/13 18:05:59;;;;;;;36.60;32.80;;;;;;;23.28;66.02;98768.36;237270;1195;140042;-55
2022/08/13 18:11:22;;;;;;;69.80;62.10;;;;;;;23.30;65.92;98772.12;237447;1195;140529;-57
2022/08/13 18:16:27;;;;;;;15.80;14.20;;;;;;;23.29;65.63;98775.80;237390;1195;139467;-55
2022/08/13 18:21:50;;;;;;;12.40;11.10;;;;;;;23.18;65.40;98778.25;237488;1195;139585;-54
2022/08/13 18:26:53;;;;;;;12.90;10.30;;;;;;;23.11;65.40;98781.27;237292;1195;139660;-55
2022/08/13 18:31:59;;;;;;;10.70;8.20;;;;;;;23.06;65.25;98784.09;237264;1196;140315;-55
2022/08/13 18:37:02;;;;;;;9.70;8.70;;;;;;;22.99;65.43;98794.70;237178;1195;140192;-55
2022/08/13 18:42:06;;;;;;;9.50;8.60;;;;;;;22.94;65.59;98808.48;237388;1196;139869;-57
2022/08/13 18:47:10;;;;;;;11.30;9.10;;;;;;;22.90;65.83;98810.30;237357;1196;140635;-55
2022/08/13 18:52:13;;;;;;;11.60;8.30;;;;;;;22.90;65.79;98813.77;237221;1195;140422;-55
2022/08/13 18:57:37;;;;;;;16.30;7.90;;;;;;;22.91;65.82;98814.73;237262;1196;140660;-54
2022/08/13 19:02:44;;;;;;;10.70;8.20;;;;;;;22.93;65.88;98818.71;237639;1195;140007;-54
2022/08/13 19:07:55;;;;;;;10.40;9.00;;;;;;;22.97;66.03;98814.80;237712;1195;139171;-54
2022/08/13 19:12:59;;;;;;;99.40;85.00;;;;;;;22.98;66.06;98813.34;236114;1195;139007;-57
2022/08/13 19:18:02;;;;;;;14.50;12.70;;;;;;;22.98;66.16;98808.09;236401;1196;139952;-56
2022/08/13 19:23:21;;;;;;;11.70;8.70;;;;;;;22.98;66.10;98807.70;237463;1195;141483;-57
2022/08/13 19:28:25;;;;;;;10.60;8.70;;;;;;;22.90;65.91;98807.11;237349;1195;140143;-57
2022/08/13 19:33:49;;;;;;;10.80;9.10;;;;;;;22.77;65.92;98800.68;237192;1196;140958;-58
2022/08/13 19:38:53;;;;;;;10.40;7.90;;;;;;;22.69;66.19;98794.73;237356;1195;139894;-57
2022/08/13 19:44:04;;;;;;;8.00;7.20;;;;;;;22.61;66.28;98789.98;237370;1195;140527;-56
2022/08/13 19:49:15;;;;;;;8.20;7.30;;;;;;;22.59;66.43;98787.90;236941;1196;139541;-58
2022/08/13 19:54:18;;;;;;;9.90;8.40;;;;;;;22.53;66.44;98788.98;236955;1196;139679;-56
2022/08/13 19:59:22;;;;;;;9.50;8.30;;;;;;;22.48;66.48;98785.48;237347;1196;139285;-58
2022/08/13 20:04:27;;;;;;;;;;;;;;;22.43;66.64;98781.14;237346;1195;139707;-56
2022/08/13 20:09:40;;;;;;;10.30;8.10;;;;;;;22.35;66.71;98774.83;237389;1196;126858;-57
2022/08/13 20:14:54;;;;;;;11.50;8.20;;;;;;;22.35;66.90;98771.73;237283;1195;140051;-57
2022/08/13 20:20:02;;;;;;;11.10;9.00;;;;;;;22.37;67.06;98769.85;237005;1196;140100;-56
2022/08/13 20:25:07;;;;;;;11.00;7.90;;;;;;;22.33;67.00;98758.45;237120;1196;142880;-57
2022/08/13 20:30:31;;;;;;;10.50;7.40;;;;;;;22.35;67.05;98754.19;237100;1196;139968;-58
2022/08/13 20:35:39;;;;;;;10.50;8.10;;;;;;;22.36;67.22;98749.34;237009;1196;140223;-58
2022/08/13 20:40:44;;;;;;;12.80;8.60;;;;;;;22.41;67.49;98744.02;237176;1196;139748;-57
2022/08/13 20:45:48;;;;;;;9.30;8.40;;;;;;;22.47;67.48;98738.75;236865;1195;140466;-56
2022/08/13 20:50:55;;;;;;;9.20;8.20;;;;;;;22.50;67.30;98738.25;237185;1195;140760;-55
2022/08/13 20:55:58;;;;;;;9.50;8.60;;;;;;;22.47;67.21;98741.04;237677;1195;141034;-57
2022/08/13 21:01:02;;;;;;;13.00;9.40;;;;;;;22.48;67.42;98729.78;237578;1195;139675;-57
2022/08/13 21:06:18;;;;;;;13.10;11.00;;;;;;;22.47;67.33;98726.02;237141;1196;140757;-58
2022/08/13 21:11:25;;;;;;;14.20;9.60;;;;;;;22.42;67.34;98716.98;237393;1196;140826;-57
2022/08/13 21:16:42;;;;;;;12.80;9.80;;;;;;;22.43;67.55;98713.65;237475;1195;140641;-58
2022/08/13 21:21:47;;;;;;;;;;;;;;;22.38;67.47;98705.20;237625;1195;139773;-56
2022/08/13 21:27:01;;;;;;;11.60;8.50;;;;;;;22.33;67.43;98700.23;236727;1196;126614;-59
2022/08/13 21:32:28;;;;;;;11.10;9.20;;;;;;;22.33;67.60;98698.39;237709;1195;140436;-56
2022/08/13 21:37:32;;;;;;;10.00;9.00;;;;;;;22.31;67.49;98690.52;237533;1196;140872;-58
2022/08/13 21:42:36;;;;;;;9.20;8.00;;;;;;;22.25;67.50;98688.64;237210;1196;140357;-58
2022/08/13 21:47:44;;;;;;;10.60;8.40;;;;;;;22.20;67.51;98686.38;237639;1195;143537;-57
2022/08/13 21:52:49;;;;;;;10.80;9.80;;;;;;;22.18;67.55;98681.48;237508;1195;140159;-58
2022/08/13 21:57:59;;;;;;;10.20;9.00;;;;;;;22.11;67.51;98677.61;236328;1196;140278;-58
2022/08/13 22:03:05;;;;;;;11.70;8.80;;;;;;;22.04;67.57;98675.52;237201;1196;140010;-57
2022/08/13 22:08:15;;;;;;;9.60;8.50;;;;;;;22.07;67.68;98681.55;237716;1195;140042;-58
2022/08/13 22:13:21;;;;;;;10.30;9.30;;;;;;;22.06;67.71;98676.45;237700;1195;140413;-58
2022/08/13 22:18:25;;;;;;;13.30;9.20;;;;;;;22.06;67.78;98671.67;237348;1196;139921;-58
2022/08/13 22:23:30;;;;;;;10.50;8.40;;;;;;;22.03;67.70;98666.60;237267;1196;140020;-58
2022/08/13 22:33:56;;;;;;;11.00;9.30;;;;;;;22.06;67.84;98654.86;237482;1195;141581;-57
2022/08/13 22:39:08;;;;;;;14.30;9.60;;;;;;;22.05;67.91;98650.88;237237;1195;140306;-59
2022/08/13 22:44:12;;;;;;;10.50;9.30;;;;;;;22.06;67.98;98648.02;237316;1195;140212;-58
2022/08/13 22:49:15;;;;;;;11.50;8.50;;;;;;;22.07;67.89;98648.08;237267;1195;141082;-58
2022/08/13 22:54:20;;;;;;;13.60;9.30;;;;;;;22.08;67.99;98645.23;237230;1195;139906;-57
2022/08/13 22:59:23;;;;;;;11.10;9.50;;;;;;;22.11;67.95;98651.42;236818;1196;139778;-56
2022/08/13 23:04:26;;;;;;;9.70;8.30;;;;;;;22.11;68.07;98648.16;236475;1195;139431;-57
2022/08/13 23:09:30;;;;;;;10.80;8.90;;;;;;;22.14;68.05;98643.27;237103;1196;141360;-56
2022/08/13 23:14:33;;;;;;;11.40;9.00;;;;;;;22.14;68.07;98639.55;237230;1196;139197;-57
2022/08/13 23:19:37;;;;;;;10.60;8.30;;;;;;;22.04;67.81;98630.92;237772;1195;139762;-58
2022/08/13 23:24:42;;;;;;;10.10;8.40;;;;;;;22.05;68.18;98629.66;237615;1195;141612;-57
2022/08/13 23:29:45;;;;;;;12.00;8.60;;;;;;;22.05;68.02;98625.27;237141;1196;139973;-58
2022/08/13 23:34:48;;;;;;;10.70;8.80;;;;;;;22.02;68.07;98621.63;237393;1196;140029;-58
2022/08/13 23:39:59;;;;;;;11.00;8.50;;;;;;;21.98;68.00;98616.59;237330;1196;139815;-58
2022/08/13 23:45:03;;;;;;;10.10;8.20;;;;;;;22.00;68.15;98615.67;237191;1196;140342;-55